Manor Dabbur

Olheiro - Bnei Yehuda
20 Jan 2028
Quinta-feira
Processo

Personalidade

Adaptabilidade (20) Ambição (17) Controvérsia (7) Lealdade (11) Pressão (2) Profissionalismo (9) Espírito Esportivo (13) Temperamento (8)

Perfil

Estilo de Treinamento Democrático
Licença Continental B
Determinação 7
Gestão de Pessoas 8
Motivação 7
Disciplina 10
Satisfação no Trabalho
100%
Fadiga
0%
Função Olheiro
Salário 23.3K p/s
Contrato 14.03.2030

Desempenho

Comportamento Bom
Eficácia do Treinamento
34%
Desenvolvimento do Jogador
45%
Prevenção de Lesões
30%
Implementação Tática
20%

Eventos Recentes

Participando de desenvolvimento profissional agora
Participou de uma reunião de recrutamento agora
Recomendou um alvo de transferência agora
Recomendou um alvo de transferência agora
Recomendou um alvo de transferência agora
Recomendou um alvo de transferência agora
Recomendou um alvo de transferência agora
Participando de desenvolvimento profissional 7d atrás

Monitorando agora

67
Jogador Clube Status Habilidade Confiança Observado Última observação Último voto
Gitai Sofir Hapoel Kfar Saba Ativo 80 / 78 76% 1 17.01.2028 Aprovar
Mohammad Amini Hapoel Kfar Saba Ativo 82 / 89 76% 1 07.01.2028 Aprovar
Kim Moon Hyeon Hapoel Kfar Saba Ativo 88 / 89 76% 1 06.01.2028 Aprovar
Júlio César Hapoel Kfar Saba Ativo 92 / 89 72% 1 05.07.2027 Aprovar
Eldar Ćivić Baltika Ativo 115 / 122 40% 1 31.12.2026 -
Edoardo Colombo Gzira United Ativo 87 / 92 40% 2 30.12.2026 -
Tommaso Orsini Sambenedettese Ativo 92 / 106 40% 1 30.12.2026 -
Mattia Chiesa ND Gorica Ativo 102 / 85 40% 1 30.12.2026 -
Osman Hadžikić Honved Ativo 112 / 101 40% 1 27.12.2026 -
Lévi Ntumba Slavia Sofia Ativo 111 / 104 40% 1 26.12.2026 -
Visar Bekaj Tirana Ativo 120 / 113 40% 1 26.12.2026 -
Oleh Bilyk Epicentr Ativo 92 / 110 40% 1 26.12.2026 -
Daniil Frolkin Fakel Ativo 117 / 96 40% 2 22.12.2026 -
Bojan Milosavljević Lokomotiv Plovdiv Ativo 111 / 108 40% 1 22.12.2026 -
Martin Velichkov Lokomotiv Sofia Ativo 100 / 115 40% 1 22.12.2026 -
Rostislav Soldatenko Torpedo Moscow Ativo 93 / 92 40% 1 19.12.2026 -
Islam Imamov SKA Khabarovsk Ativo 94 / 83 40% 2 18.12.2026 -
Omri Glazer Maccabi Haifa Ativo 119 / 118 40% 1 18.12.2026 -
Leonardo Marson Gubbio Ativo 106 / 109 40% 1 16.12.2026 -
Dominik Takáč Slovan Bratislava Ativo 133 / 127 40% 1 15.12.2026 -
Bogdan Ovsyannikov Orenburg Ativo 112 / 103 40% 2 14.12.2026 -
David Volk Dinamo Makhachkala Ativo 111 / 117 40% 1 14.12.2026 -
Joaquín Bigo Tristán Suárez Ativo 114 / 106 40% 1 12.12.2026 -
Adam Jakubech MFK Michalovce Ativo 107 / 116 40% 1 12.12.2026 -
Alexey Kuznetsov Leningradets Ativo 92 / 94 40% 1 11.12.2026 -
Samu Maccabi Netanya Ativo 114 / 118 40% 1 11.12.2026 -
Rinat Shakerov Volga Ativo 90 / 102 40% 1 10.12.2026 -
Willy Agada Hapoel Haifa Ativo 111 / 120 40% 3 03.12.2026 -
Matty Cudjoe Bnei Sakhnin Ativo 114 / 99 40% 1 03.12.2026 -
Suleiman Camara Slovan Bratislava Ativo 126 / 118 40% 3 02.12.2026 -
Manuel Benson Maccabi Haifa Ativo 125 / 116 40% 1 02.12.2026 -
Shai Elias Hapoel Haifa Ativo 116 / 106 40% 1 01.12.2026 -
Fernando Costanza Krylya Sovetov Ativo 114 / 114 40% 1 01.12.2026 -
Reda Jaadi Hapoel Kiryat Shmona Ativo 121 / 104 40% 2 28.11.2026 -
Matheus Davó Maccabi Netanya Ativo 120 / 116 40% 1 28.11.2026 -
Jonás Luna Santa Clara Ativo 114 / 125 40% 1 27.11.2026 -
Samuel Owusu Maccabi Petach Tikva Ativo 107 / 99 40% 1 27.11.2026 -
Pierre Cornud Maccabi Haifa Ativo 127 / 125 40% 1 27.11.2026 -
Andrian Kraev Hapoel Tel Aviv Ativo 119 / 123 40% 1 26.11.2026 -
Rahim Ibrahim Slovan Bratislava Ativo 138 / 126 40% 1 22.11.2026 -
Aidomo Emakhu Oxford United Ativo 126 / 126 40% 1 22.11.2026 -
Romano Schmid Frosinone Ativo 145 / 149 40% 2 20.11.2026 -
Nana Antwi Beitar Jerusalem Ativo 110 / 107 40% 1 01.11.2026 -
Cesar Blackman Slovan Bratislava Ativo 119 / 129 40% 1 01.11.2026 -
Kein Sato FC Tokyo Ativo 123 / 139 40% 1 29.10.2026 -
Aguibou Camara Ludogorets Ativo 120 / 118 40% 1 27.10.2026 -
Maicon Levski Ativo 119 / 118 40% 1 27.10.2026 -
Dan Biton Hapoel Beer Sheva Ativo 134 / 118 40% 1 26.10.2026 -
Osher Davida Maccabi Tel Aviv Ativo 128 / 113 40% 3 25.10.2026 -
Jelle Bataille Maccabi Haifa Ativo 119 / 127 40% 1 25.10.2026 -
Luka Kurtovic NK Domzale Ativo 127 / 129 40% 1 24.10.2026 -
Caolan Boyd-Munce Wycombe Wanderers Ativo 115 / 113 40% 1 23.10.2026 -
Zan Oblak NK Domzale Ativo 102 / 98 40% 1 23.10.2026 -
Petar Stanić Ludogorets Ativo 141 / 122 40% 1 20.10.2026 -
Milton Castagna Neftekhimik Ativo 89 / 108 40% 1 20.10.2026 -
Jack Currie Oxford United Ativo 125 / 123 40% 2 18.10.2026 -
Žiga Repas NK Maribor Ativo 112 / 112 40% 1 18.10.2026 -
Everton Bala Levski Ativo 125 / 134 40% 1 18.10.2026 -
Franco Cristaldo Talleres Ativo 139 / 136 40% 1 16.10.2026 -
Karem Jaber Maccabi Netanya Ativo 104 / 104 40% 1 13.10.2026 -
Tomer Yosefi Beitar Jerusalem Ativo 111 / 107 40% 1 12.10.2026 -
Bruninho Maccabi Haifa Ativo 112 / 123 40% 2 11.10.2026 -
Ammar Ramadan DAC Dunajska Streda Ativo 134 / 121 40% 1 08.10.2026 -
Ariel Schuartzman Torpedo Kutaisi Ativo 95 / 114 40% 1 06.10.2026 -
Reda Khadra Qarabag Ativo 131 / 130 40% 1 05.10.2026 -
Jubayer Bushnak Bnei Sakhnin Ativo 73 / 88 69% 1 17.08.2026 Aprovar
Lucas Ventura Hapoel Beer Sheva Ativo 129 / 121 40% 1 04.08.2026 -